createdAt,value
2017-04-10T00:00:51.408Z,15.54
2017-04-10T00:01:49.297Z,15.23
2017-04-10T00:02:47.220Z,15.71
2017-04-10T00:03:45.632Z,15.17
2017-04-10T00:04:43.453Z,16.10
2017-04-10T00:05:41.947Z,16.60
2017-04-10T00:06:45.127Z,16.50
2017-04-10T00:07:43.128Z,15.30
2017-04-10T00:08:41.003Z,15.24
2017-04-10T00:09:39.231Z,15.20
2017-04-10T00:10:37.076Z,14.60
2017-04-10T00:11:35.028Z,16.83
2017-04-10T00:12:32.847Z,15.84
2017-04-10T00:13:30.793Z,14.87
2017-04-10T00:14:28.724Z,15.29
2017-04-10T00:15:26.615Z,16.76
2017-04-10T00:16:24.499Z,15.96
2017-04-10T00:17:22.445Z,15.46
2017-04-10T00:18:20.296Z,15.60
2017-04-10T00:19:18.119Z,16.40
2017-04-10T00:20:16.151Z,16.14
2017-04-10T00:21:14.158Z,14.76
2017-04-10T00:22:12.063Z,15.06
2017-04-10T00:23:09.920Z,16.74
2017-04-10T00:24:07.737Z,14.90
2017-04-10T00:25:05.582Z,15.27
2017-04-10T00:26:03.473Z,15.39
2017-04-10T00:27:01.437Z,15.93
2017-04-10T00:27:59.301Z,14.79
2017-04-10T00:28:57.128Z,14.87
2017-04-10T00:29:54.980Z,14.41
2017-04-10T00:30:52.831Z,15.43
2017-04-10T00:31:50.719Z,15.97
2017-04-10T00:32:48.556Z,15.00
2017-04-10T00:33:46.408Z,15.11
2017-04-10T00:34:44.233Z,16.27
2017-04-10T00:35:42.238Z,14.69
2017-04-10T00:36:40.164Z,16.19
2017-04-10T00:37:37.962Z,14.43
2017-04-10T00:38:35.866Z,14.37
2017-04-10T00:39:33.675Z,15.31
2017-04-10T00:40:31.689Z,15.50
2017-04-10T00:41:29.503Z,14.46
2017-04-10T00:42:27.544Z,15.93
2017-04-10T00:43:25.354Z,14.80
2017-04-10T00:44:23.156Z,14.47
2017-04-10T00:45:21.003Z,15.11
2017-04-10T00:46:18.812Z,14.30
2017-04-10T00:47:16.819Z,14.06
2017-04-10T00:48:14.627Z,16.14
2017-04-10T00:49:12.700Z,14.79
2017-04-10T00:50:10.539Z,14.09
2017-04-10T00:51:08.366Z,13.89
2017-04-10T00:52:06.177Z,16.70
2017-04-10T00:53:04.084Z,15.40
2017-04-10T00:54:02.064Z,15.13
2017-04-10T00:54:59.877Z,15.10
2017-04-10T00:55:57.787Z,14.84
2017-04-10T00:56:55.613Z,15.71
2017-04-10T00:57:53.435Z,16.13
2017-04-10T00:58:51.607Z,14.50
2017-04-10T00:59:49.480Z,14.93
2017-04-10T01:00:47.387Z,14.73
2017-04-10T01:01:45.239Z,13.78
2017-04-10T01:02:43.104Z,15.65
2017-04-10T01:03:40.957Z,15.07
2017-04-10T01:04:38.769Z,15.68
2017-04-10T01:05:36.715Z,15.47
2017-04-10T01:06:34.576Z,14.00
2017-04-10T01:07:32.480Z,15.55
2017-04-10T01:08:30.381Z,14.73
2017-04-10T01:09:28.193Z,14.22
2017-04-10T01:10:26.046Z,15.25
2017-04-10T01:11:23.912Z,15.37
2017-04-10T01:12:21.801Z,15.26
2017-04-10T01:13:19.691Z,13.60
2017-04-10T01:14:17.560Z,15.27
2017-04-10T01:15:15.392Z,15.40
2017-04-10T01:16:13.444Z,15.00
2017-04-10T01:17:11.278Z,14.57
2017-04-10T01:18:09.185Z,14.58
2017-04-10T01:19:07.062Z,15.50
2017-04-10T01:20:04.944Z,12.89
2017-04-10T01:21:02.796Z,15.92
2017-04-10T01:22:00.612Z,14.33
2017-04-10T01:22:58.519Z,13.80
2017-04-10T01:23:56.392Z,15.02
2017-04-10T01:24:54.254Z,14.89
2017-04-10T01:25:52.167Z,15.37
2017-04-10T01:26:49.991Z,15.10
2017-04-10T01:27:47.963Z,14.73
2017-04-10T01:28:45.892Z,14.75
2017-04-10T01:29:43.760Z,15.01
2017-04-10T01:30:41.586Z,13.48
2017-04-10T01:31:39.482Z,14.30
2017-04-10T01:32:37.345Z,14.86
2017-04-10T01:33:35.159Z,14.13
2017-04-10T01:34:33.428Z,13.93
2017-04-10T01:35:31.262Z,13.60
2017-04-10T01:36:29.156Z,15.22
2017-04-10T01:37:26.967Z,15.14
2017-04-10T01:38:24.811Z,14.40
2017-04-10T01:39:22.700Z,15.71
2017-04-10T01:40:20.523Z,13.88
2017-04-10T01:41:18.651Z,14.47
2017-04-10T01:42:16.578Z,13.48
2017-04-10T01:43:14.447Z,14.20
2017-04-10T01:44:12.260Z,15.14
2017-04-10T01:45:10.106Z,14.77
2017-04-10T01:46:07.932Z,14.80
2017-04-10T01:47:05.823Z,15.06
2017-04-10T01:48:03.765Z,13.63
2017-04-10T01:49:01.568Z,13.00
2017-04-10T01:49:59.409Z,14.14
2017-04-10T01:50:57.319Z,14.33
2017-04-10T01:51:55.116Z,14.41
2017-04-10T01:52:53.048Z,13.84
2017-04-10T01:53:50.843Z,14.00
2017-04-10T01:54:48.693Z,14.19
2017-04-10T01:55:46.519Z,14.60
2017-04-10T01:56:44.568Z,15.63
2017-04-10T01:57:42.413Z,14.36
2017-04-10T01:58:40.236Z,15.15
2017-04-10T01:59:38.088Z,14.30
2017-04-10T02:00:35.976Z,13.68
2017-04-10T02:01:33.956Z,15.80
2017-04-10T02:02:32.084Z,15.25
2017-04-10T02:03:29.968Z,16.40
2017-04-10T02:04:27.753Z,16.00
2017-04-10T02:05:25.608Z,17.67
2017-04-10T02:06:23.448Z,16.37
2017-04-10T02:07:21.272Z,16.48
2017-04-10T02:08:19.140Z,16.28
2017-04-10T02:09:17.011Z,15.53
2017-04-10T02:10:14.864Z,13.97
2017-04-10T02:11:12.714Z,15.01
2017-04-10T02:12:10.552Z,16.23
2017-04-10T02:13:08.444Z,15.73
2017-04-10T02:14:06.294Z,15.50
2017-04-10T02:15:04.297Z,16.10
2017-04-10T02:16:02.104Z,14.81
2017-04-10T02:17:00.060Z,15.09
2017-04-10T02:17:57.896Z,15.73
2017-04-10T02:18:55.748Z,16.55
2017-04-10T02:19:53.608Z,15.65
2017-04-10T02:20:52.191Z,16.77
2017-04-10T02:21:50.139Z,15.40
2017-04-10T02:22:48.019Z,15.95
2017-04-10T02:23:45.916Z,16.13
2017-04-10T02:24:43.822Z,15.02
2017-04-10T02:25:41.742Z,14.93
2017-04-10T02:26:39.667Z,15.30
2017-04-10T02:27:37.469Z,13.79
2017-04-10T02:28:35.378Z,16.87
2017-04-10T02:29:33.264Z,15.93
2017-04-10T02:30:31.099Z,15.33
2017-04-10T02:31:29.085Z,16.06
2017-04-10T02:32:26.932Z,16.10
2017-04-10T02:33:24.931Z,16.10
2017-04-10T02:34:22.768Z,16.07
2017-04-10T02:35:20.668Z,17.57
2017-04-10T02:36:18.493Z,16.47
2017-04-10T02:37:16.348Z,16.66
2017-04-10T02:38:14.336Z,16.71
2017-04-10T02:39:12.204Z,16.46
2017-04-10T02:40:10.145Z,16.42
2017-04-10T02:41:07.988Z,16.49
2017-04-10T02:42:05.928Z,16.98
2017-04-10T02:43:03.775Z,17.47
2017-04-10T02:44:01.634Z,17.00
2017-04-10T02:44:59.568Z,15.71
2017-04-10T02:45:57.362Z,17.61
2017-04-10T02:46:55.332Z,15.01
2017-04-10T02:47:53.124Z,16.67
2017-04-10T02:48:51.095Z,15.34
2017-04-10T02:49:48.944Z,15.96
2017-04-10T02:50:46.747Z,16.41
2017-04-10T02:51:44.723Z,15.37
2017-04-10T02:52:42.576Z,16.83
2017-04-10T02:53:40.552Z,15.97
2017-04-10T02:54:38.384Z,15.68
2017-04-10T02:55:36.324Z,17.57
2017-04-10T02:56:34.159Z,16.57
2017-04-10T02:57:31.996Z,16.38
2017-04-10T02:58:29.909Z,14.85
2017-04-10T02:59:27.730Z,15.53
2017-04-10T03:00:25.941Z,16.23
2017-04-10T03:01:23.757Z,16.47
2017-04-10T03:02:21.640Z,17.70
2017-04-10T03:03:19.509Z,17.63
2017-04-10T03:04:17.305Z,15.43
2017-04-10T03:05:15.099Z,16.18
2017-04-10T03:06:12.955Z,17.68
2017-04-10T03:07:10.928Z,16.78
2017-04-10T03:08:08.760Z,16.13
2017-04-10T03:09:06.726Z,16.20
2017-04-10T03:10:04.583Z,18.03
2017-04-10T03:11:02.379Z,17.85
2017-04-10T03:12:00.319Z,15.93
2017-04-10T03:12:58.125Z,16.70
2017-04-10T03:13:56.112Z,16.32
2017-04-10T03:14:54.028Z,15.12
2017-04-10T03:15:51.810Z,15.72
2017-04-10T03:16:49.771Z,15.55
2017-04-10T03:17:47.619Z,16.22
2017-04-10T03:18:45.511Z,14.28
2017-04-10T03:19:43.327Z,15.40
2017-04-10T03:20:41.363Z,15.78
2017-04-10T03:21:39.173Z,15.55
2017-04-10T03:22:37.119Z,15.13
2017-04-10T03:23:35.028Z,15.23
2017-04-10T03:24:32.847Z,16.25
2017-04-10T03:25:30.751Z,18.30
2017-04-10T03:26:28.547Z,17.40
2017-04-10T03:27:26.564Z,16.50
2017-04-10T03:28:24.404Z,16.85
2017-04-10T03:29:22.232Z,16.73
2017-04-10T03:30:20.148Z,16.11
2017-04-10T03:31:17.968Z,17.38
2017-04-10T03:32:16.139Z,15.91
2017-04-10T03:33:13.949Z,16.80
2017-04-10T03:34:11.814Z,16.69
2017-04-10T03:35:09.709Z,16.99
2017-04-10T03:36:07.639Z,16.87
2017-04-10T03:37:05.490Z,16.14
2017-04-10T03:38:03.393Z,16.29
2017-04-10T03:39:01.236Z,16.35
2017-04-10T03:39:59.193Z,16.11
2017-04-10T03:40:57.061Z,16.09
2017-04-10T03:41:54.937Z,16.42
2017-04-10T03:42:52.769Z,16.48
2017-04-10T03:43:50.642Z,16.78
2017-04-10T03:44:48.474Z,16.06
2017-04-10T03:45:46.438Z,15.44
2017-04-10T03:46:44.244Z,16.80
2017-04-10T03:47:42.300Z,16.45
2017-04-10T03:48:40.171Z,16.72
2017-04-10T03:49:37.968Z,15.62
2017-04-10T03:50:35.888Z,17.20
2017-04-10T03:51:33.696Z,17.97
2017-04-10T03:52:31.619Z,15.90
2017-04-10T03:53:29.452Z,16.03
2017-04-10T03:54:27.464Z,16.78
2017-04-10T03:55:25.274Z,17.58
2017-04-10T03:56:23.147Z,16.69
2017-04-10T03:57:20.998Z,17.83
2017-04-10T03:58:18.889Z,15.85
2017-04-10T03:59:16.792Z,17.12
2017-04-10T04:00:14.620Z,16.42
2017-04-10T04:01:12.567Z,15.47
2017-04-10T04:02:10.384Z,15.83
2017-04-10T04:03:08.371Z,16.97
2017-04-10T04:04:06.240Z,17.13
2017-04-10T04:05:04.085Z,17.82
2017-04-10T04:06:02.021Z,16.07
2017-04-10T04:06:59.854Z,16.83
2017-04-10T04:07:57.771Z,17.23
2017-04-10T04:08:55.577Z,16.17
2017-04-10T04:09:53.807Z,17.70
2017-04-10T04:10:51.667Z,17.14
2017-04-10T04:11:49.461Z,17.30
2017-04-10T04:12:47.320Z,18.40
2017-04-10T04:13:45.132Z,20.13
2017-04-10T04:14:42.912Z,17.06
2017-04-10T04:15:40.755Z,17.24
2017-04-10T04:16:38.719Z,17.54
2017-04-10T04:17:36.575Z,18.28
2017-04-10T04:18:34.392Z,18.85
2017-04-10T04:19:32.461Z,18.63
2017-04-10T04:20:31.260Z,19.09
2017-04-10T04:21:29.142Z,18.72
2017-04-10T04:22:26.978Z,17.41
2017-04-10T04:23:24.835Z,19.18
2017-04-10T04:24:22.663Z,17.03
2017-04-10T04:25:20.507Z,19.42
2017-04-10T04:26:18.359Z,17.41
2017-04-10T04:27:16.152Z,17.63
2017-04-10T04:28:14.152Z,19.53
2017-04-10T04:29:11.984Z,17.76
2017-04-10T04:30:09.857Z,19.37
2017-04-10T04:31:07.742Z,17.32
2017-04-10T04:32:05.576Z,18.40
2017-04-10T04:33:03.468Z,18.19
2017-04-10T04:34:01.332Z,18.59
2017-04-10T04:34:59.451Z,18.43
2017-04-10T04:35:57.259Z,18.43
2017-04-10T04:36:55.195Z,18.65
2017-04-10T04:37:53.047Z,19.52
2017-04-10T04:38:50.940Z,19.83
2017-04-10T04:39:48.839Z,19.53
2017-04-10T04:40:46.722Z,20.02
2017-04-10T04:41:44.593Z,19.02
2017-04-10T04:42:42.440Z,20.15
2017-04-10T04:43:40.248Z,18.87
2017-04-10T04:44:38.245Z,18.50
2017-04-10T04:45:36.081Z,18.37
2017-04-10T04:46:33.980Z,19.41
2017-04-10T04:47:31.990Z,18.82
2017-04-10T04:48:29.847Z,18.68
2017-04-10T04:49:27.660Z,19.30
2017-04-10T04:50:25.560Z,17.12
2017-04-10T04:51:23.412Z,20.15
2017-04-10T04:52:21.228Z,20.42
2017-04-10T04:53:19.217Z,18.12
2017-04-10T04:54:17.067Z,19.17
2017-04-10T04:55:15.052Z,20.07
2017-04-10T04:56:12.894Z,19.50
2017-04-10T04:57:10.751Z,19.95
2017-04-10T04:58:08.635Z,20.37
2017-04-10T04:59:06.494Z,20.52
2017-04-10T05:00:04.484Z,20.30
2017-04-10T05:01:02.313Z,18.99
2017-04-10T05:02:00.281Z,18.09
2017-04-10T05:02:58.097Z,19.37
2017-04-10T05:03:55.900Z,21.92
2017-04-10T05:04:53.840Z,19.16
2017-04-10T05:05:51.645Z,20.23
2017-04-10T05:06:49.727Z,20.14
2017-04-10T05:07:47.554Z,20.29
2017-04-10T05:08:45.466Z,22.35
2017-04-10T05:09:43.300Z,21.42
2017-04-10T05:10:41.157Z,20.59
2017-04-10T05:11:39.059Z,20.09
2017-04-10T05:12:36.879Z,21.37
2017-04-10T05:13:34.872Z,20.57
2017-04-10T05:14:32.723Z,19.79
2017-04-10T05:15:30.656Z,20.13
2017-04-10T05:16:28.498Z,21.21
2017-04-10T05:17:26.340Z,21.16
2017-04-10T05:18:24.239Z,23.50
2017-04-10T05:19:22.064Z,21.13
2017-04-10T05:20:20.049Z,20.53
2017-04-10T05:21:17.925Z,21.66
2017-04-10T05:22:15.837Z,21.79
2017-04-10T05:23:13.663Z,23.91
2017-04-10T05:24:11.506Z,23.56
2017-04-10T05:25:09.472Z,21.00
2017-04-10T05:26:07.472Z,22.94
2017-04-10T05:27:05.345Z,23.33
2017-04-10T05:28:03.180Z,23.04
2017-04-10T05:29:01.126Z,23.49
2017-04-10T05:29:58.949Z,23.00
2017-04-10T05:30:56.910Z,26.61
2017-04-10T05:31:54.795Z,25.43
2017-04-10T05:32:52.716Z,24.69
2017-04-10T05:33:50.613Z,24.49
2017-04-10T05:34:48.446Z,24.04
2017-04-10T05:35:46.317Z,24.44
2017-04-10T05:36:44.238Z,22.87
2017-04-10T05:37:42.068Z,24.51
2017-04-10T05:38:39.991Z,24.97
2017-04-10T05:39:37.815Z,24.33
2017-04-10T05:40:35.704Z,24.69
2017-04-10T05:41:33.589Z,24.93
2017-04-10T05:42:31.471Z,24.16
2017-04-10T05:43:29.389Z,27.30
2017-04-10T05:44:27.275Z,24.29
2017-04-10T05:45:25.164Z,26.03
2017-04-10T05:46:23.001Z,24.20
2017-04-10T05:47:20.943Z,24.67
2017-04-10T05:48:18.842Z,25.69
2017-04-10T05:49:16.667Z,26.50
2017-04-10T05:50:14.530Z,26.06
2017-04-10T05:51:12.433Z,25.26
2017-04-10T05:52:10.447Z,26.24
2017-04-10T05:53:08.271Z,25.47
2017-04-10T05:54:06.149Z,26.71
2017-04-10T05:55:04.211Z,28.01
2017-04-10T05:56:02.152Z,27.99
2017-04-10T05:57:00.008Z,26.61
2017-04-10T05:57:57.852Z,27.87
2017-04-10T05:58:55.738Z,25.50
2017-04-10T05:59:53.691Z,28.63
2017-04-10T06:00:51.528Z,27.70
2017-04-10T06:01:49.395Z,29.06
2017-04-10T06:02:47.276Z,28.50
2017-04-10T06:03:45.182Z,30.49
2017-04-10T06:04:43.023Z,31.56
2017-04-10T06:05:40.888Z,29.47
2017-04-10T06:06:38.768Z,28.71
2017-04-10T06:07:36.597Z,29.33
2017-04-10T06:08:35.724Z,29.80
2017-04-10T06:09:33.560Z,31.43
2017-04-10T06:10:31.576Z,30.31
2017-04-10T06:11:29.447Z,30.50
2017-04-10T06:12:27.426Z,30.86
2017-04-10T06:13:25.292Z,30.59
2017-04-10T06:14:23.181Z,31.93
2017-04-10T06:15:21.238Z,33.63
2017-04-10T06:16:19.068Z,30.17
2017-04-10T06:17:16.916Z,31.63
2017-04-10T06:18:14.731Z,33.20
2017-04-10T06:19:12.718Z,31.64
2017-04-10T06:20:10.621Z,34.30
2017-04-10T06:21:08.461Z,30.73
2017-04-10T06:22:06.305Z,32.94
2017-04-10T06:23:04.169Z,35.56
2017-04-10T06:24:02.109Z,33.54
2017-04-10T06:24:59.940Z,34.33
2017-04-10T06:25:57.886Z,31.94
2017-04-10T06:26:55.739Z,32.43
2017-04-10T06:27:53.547Z,34.07
2017-04-10T06:28:51.503Z,35.26
2017-04-10T06:29:49.357Z,34.66
2017-04-10T06:30:47.229Z,33.77
2017-04-10T06:31:45.076Z,34.67
2017-04-10T06:32:43.032Z,36.24
2017-04-10T06:33:40.929Z,33.17
2017-04-10T06:34:38.773Z,34.13
2017-04-10T06:35:36.631Z,37.63
2017-04-10T06:36:34.569Z,34.49
2017-04-10T06:37:33.235Z,33.60
2017-04-10T06:38:31.116Z,35.26
2017-04-10T06:39:28.999Z,36.71
2017-04-10T06:40:26.864Z,34.66
2017-04-10T06:41:24.756Z,33.84
2017-04-10T06:42:22.618Z,36.50
2017-04-10T06:43:20.501Z,35.14
2017-04-10T06:44:18.397Z,35.44
2017-04-10T06:45:16.329Z,34.41
2017-04-10T06:46:14.184Z,32.90
2017-04-10T06:47:12.041Z,35.61
2017-04-10T06:48:09.856Z,32.63
2017-04-10T06:49:07.748Z,33.53
2017-04-10T06:50:05.739Z,33.14
2017-04-10T06:51:03.639Z,32.64
2017-04-10T06:52:01.516Z,33.83
2017-04-10T06:52:59.391Z,35.60
2017-04-10T06:53:57.221Z,33.41
2017-04-10T06:54:55.071Z,33.97
2017-04-10T06:55:52.930Z,30.81
2017-04-10T06:56:50.807Z,30.50
2017-04-10T06:57:48.733Z,32.94
2017-04-10T06:58:46.555Z,31.10
2017-04-10T06:59:44.506Z,30.94
2017-04-10T07:00:42.451Z,31.71
2017-04-10T07:01:40.377Z,31.39
2017-04-10T07:02:38.336Z,30.70
2017-04-10T07:03:36.198Z,31.37
2017-04-10T07:04:34.023Z,31.74
2017-04-10T07:05:31.849Z,30.80
2017-04-10T07:06:29.664Z,30.86
2017-04-10T07:07:27.563Z,30.96
2017-04-10T07:08:25.452Z,29.17
2017-04-10T07:09:23.483Z,30.09
2017-04-10T07:10:21.329Z,30.77
2017-04-10T07:11:19.545Z,30.93
2017-04-10T07:12:17.393Z,31.96
2017-04-10T07:13:15.220Z,32.11
2017-04-10T07:14:13.068Z,28.69
2017-04-10T07:15:10.920Z,29.40
2017-04-10T07:16:08.777Z,30.51
2017-04-10T07:17:06.647Z,30.19
2017-04-10T07:18:04.523Z,29.76
2017-04-10T07:19:02.348Z,28.01
2017-04-10T07:20:00.166Z,29.17
2017-04-10T07:20:58.002Z,32.13
2017-04-10T07:21:55.978Z,27.83
2017-04-10T07:22:53.862Z,30.01
2017-04-10T07:23:51.720Z,29.56
2017-04-10T07:24:49.600Z,29.16
2017-04-10T07:25:47.444Z,29.27
2017-04-10T07:26:45.360Z,30.81
2017-04-10T07:27:43.273Z,29.37
2017-04-10T07:28:41.141Z,27.67
2017-04-10T07:29:39.119Z,32.20
2017-04-10T07:30:37.047Z,28.40
2017-04-10T07:31:34.909Z,27.80
2017-04-10T07:32:32.765Z,29.66
2017-04-10T07:33:30.656Z,28.13
2017-04-10T07:34:28.512Z,29.13
2017-04-10T07:35:26.387Z,29.14
2017-04-10T07:36:24.332Z,29.37
2017-04-10T07:37:22.171Z,29.36
2017-04-10T07:38:20.136Z,27.91
2017-04-10T07:39:17.979Z,30.86
2017-04-10T07:40:15.981Z,29.77
2017-04-10T07:41:13.784Z,30.37
2017-04-10T07:42:11.651Z,30.94
2017-04-10T07:43:09.523Z,31.94
2017-04-10T07:44:07.411Z,32.13
2017-04-10T07:45:05.375Z,30.54
2017-04-10T07:46:03.260Z,31.39
2017-04-10T07:47:01.107Z,29.81
2017-04-10T07:47:58.963Z,30.64
2017-04-10T07:48:56.816Z,30.50
2017-04-10T07:49:54.852Z,31.09
2017-04-10T07:50:52.738Z,28.40
2017-04-10T07:51:50.637Z,29.27
2017-04-10T07:52:48.500Z,29.53
2017-04-10T07:53:46.352Z,28.97
2017-04-10T07:54:44.154Z,30.03
2017-04-10T07:55:41.994Z,29.64
2017-04-10T07:56:39.936Z,27.77
2017-04-10T07:57:37.846Z,29.81
2017-04-10T07:58:35.724Z,29.26
2017-04-10T07:59:33.584Z,27.79
2017-04-10T08:00:31.441Z,29.90
2017-04-10T08:01:29.393Z,28.70
2017-04-10T08:02:27.227Z,29.60
2017-04-10T08:03:25.074Z,28.60
2017-04-10T08:04:22.911Z,29.37
2017-04-10T08:05:20.837Z,31.57
2017-04-10T08:06:18.782Z,30.24
2017-04-10T08:07:16.838Z,29.86
2017-04-10T08:08:15.000Z,29.53
2017-04-10T08:09:12.825Z,31.23
2017-04-10T08:10:10.699Z,30.47
2017-04-10T08:11:08.514Z,30.09
2017-04-10T08:12:06.332Z,30.60
2017-04-10T08:13:04.244Z,28.94
2017-04-10T08:14:02.075Z,30.14
2017-04-10T08:14:59.919Z,31.50
2017-04-10T08:15:57.768Z,31.94
2017-04-10T08:16:55.613Z,31.80
2017-04-10T08:17:53.509Z,31.21
2017-04-10T08:18:51.315Z,32.39
2017-04-10T08:19:49.208Z,35.56
2017-04-10T08:20:47.064Z,33.34
2017-04-10T08:21:44.930Z,35.06
2017-04-10T08:22:42.779Z,34.53
2017-04-10T08:23:40.637Z,34.83
2017-04-10T08:24:38.452Z,37.03
2017-04-10T08:25:36.407Z,36.26
2017-04-10T08:26:34.268Z,35.50
2017-04-10T08:27:32.160Z,34.41
2017-04-10T08:28:30.007Z,32.20
2017-04-10T08:29:27.838Z,32.99
2017-04-10T08:30:25.780Z,32.73
2017-04-10T08:31:23.625Z,30.07
2017-04-10T08:32:21.609Z,29.93
2017-04-10T08:33:19.432Z,28.01
2017-04-10T08:34:17.341Z,30.64
2017-04-10T08:35:15.225Z,28.71
2017-04-10T08:36:13.046Z,26.14
2017-04-10T08:37:10.957Z,28.70
2017-04-10T08:38:08.749Z,27.70
2017-04-10T08:39:06.638Z,28.76
2017-04-10T08:40:04.517Z,27.56
2017-04-10T08:41:02.404Z,28.54
2017-04-10T08:42:00.253Z,30.60
2017-04-10T08:42:58.093Z,33.20
2017-04-10T08:43:55.929Z,29.37
2017-04-10T08:44:53.769Z,32.03
2017-04-10T08:45:51.647Z,31.73
2017-04-10T08:46:49.439Z,33.74
2017-04-10T08:47:47.291Z,32.76
2017-04-10T08:48:45.128Z,30.91
2017-04-10T08:49:42.947Z,31.46
2017-04-10T08:50:40.773Z,30.87
2017-04-10T08:51:38.658Z,31.61
2017-04-10T08:52:36.484Z,32.19
2017-04-10T08:53:34.369Z,34.20
2017-04-10T08:54:32.257Z,32.10
2017-04-10T08:55:30.096Z,33.54
2017-04-10T08:56:28.056Z,32.24
2017-04-10T08:57:25.884Z,30.90
2017-04-10T08:58:23.695Z,32.61
2017-04-10T08:59:21.605Z,33.16
2017-04-10T09:00:19.460Z,31.64
2017-04-10T09:01:17.360Z,30.46
2017-04-10T09:02:15.209Z,31.44
2017-04-10T09:03:13.156Z,33.49
2017-04-10T09:04:11.046Z,32.24
2017-04-10T09:05:08.897Z,33.70
2017-04-10T09:06:06.867Z,34.44
2017-04-10T09:07:04.730Z,32.89
2017-04-10T09:08:02.617Z,34.31
2017-04-10T09:09:00.480Z,33.80
2017-04-10T09:09:58.437Z,32.47
2017-04-10T09:10:56.283Z,32.33
2017-04-10T09:11:54.113Z,33.57
2017-04-10T09:12:52.015Z,33.59
2017-04-10T09:13:49.864Z,34.63
2017-04-10T09:14:47.828Z,34.03
2017-04-10T09:15:45.677Z,33.40
2017-04-10T09:16:43.664Z,35.04
2017-04-10T09:17:41.514Z,31.69
2017-04-10T09:18:39.441Z,34.09
2017-04-10T09:19:37.275Z,31.90
2017-04-10T09:20:35.133Z,33.09
2017-04-10T09:21:32.996Z,31.51
2017-04-10T09:22:30.889Z,32.80
2017-04-10T09:23:28.712Z,30.93
2017-04-10T09:24:26.577Z,30.31
2017-04-10T09:25:24.404Z,28.26
2017-04-10T09:26:22.368Z,27.41
2017-04-10T09:27:20.219Z,26.77
2017-04-10T09:28:18.165Z,27.29
2017-04-10T09:29:15.989Z,25.81
2017-04-10T09:30:13.923Z,28.17
2017-04-10T09:31:11.785Z,29.17
2017-04-10T09:32:09.609Z,27.60
2017-04-10T09:33:07.545Z,27.50
2017-04-10T09:34:05.409Z,26.54
2017-04-10T09:35:03.313Z,24.56
2017-04-10T09:36:01.145Z,24.93
2017-04-10T09:36:59.144Z,24.23
2017-04-10T09:37:56.982Z,23.90
2017-04-10T09:38:54.845Z,23.46
2017-04-10T09:39:52.725Z,21.56
2017-04-10T09:40:50.570Z,19.43
2017-04-10T09:41:48.507Z,18.51
2017-04-10T09:42:46.376Z,18.84
2017-04-10T09:43:44.316Z,19.57
2017-04-10T09:44:42.160Z,21.01
2017-04-10T09:45:39.989Z,19.80
2017-04-10T09:46:37.965Z,20.34
2017-04-10T09:47:35.816Z,19.89
2017-04-10T09:48:33.676Z,21.13
2017-04-10T09:49:31.533Z,22.09
2017-04-10T09:50:29.459Z,21.13
2017-04-10T09:51:27.349Z,21.41
2017-04-10T09:52:25.224Z,21.64
2017-04-10T09:53:23.639Z,21.71
2017-04-10T09:54:21.568Z,19.19
2017-04-10T09:55:19.462Z,19.34
2017-04-10T09:56:17.286Z,18.50
2017-04-10T09:57:15.099Z,19.16
2017-04-10T09:58:12.959Z,17.61
2017-04-10T09:59:10.921Z,17.13
2017-04-10T10:00:08.956Z,17.33
2017-04-10T10:01:06.808Z,15.33
2017-04-10T10:02:04.616Z,16.99
2017-04-10T10:03:02.536Z,17.16
2017-04-10T10:04:00.364Z,17.01
2017-04-10T10:04:58.204Z,19.20
2017-04-10T10:05:56.131Z,17.93
2017-04-10T10:06:53.948Z,18.64
2017-04-10T10:07:51.767Z,19.57
2017-04-10T10:08:49.612Z,20.36
2017-04-10T10:09:47.489Z,21.50
2017-04-10T10:10:45.316Z,21.07
2017-04-10T10:11:43.201Z,20.94
2017-04-10T10:12:41.031Z,19.80
2017-04-10T10:13:38.891Z,20.20
2017-04-10T10:14:36.775Z,21.01
2017-04-10T10:15:34.653Z,18.00
2017-04-10T10:16:32.502Z,18.73
2017-04-10T10:17:30.421Z,17.59
2017-04-10T10:18:28.251Z,16.46
2017-04-10T10:19:26.091Z,16.84
2017-04-10T10:20:24.051Z,15.41
2017-04-10T10:21:21.916Z,15.06
2017-04-10T10:22:19.780Z,15.83
2017-04-10T10:23:17.594Z,16.04
2017-04-10T10:24:15.449Z,16.27
2017-04-10T10:25:13.305Z,15.24
2017-04-10T10:26:11.167Z,16.41
2017-04-10T10:27:09.022Z,17.36
2017-04-10T10:28:06.858Z,18.14
2017-04-10T10:29:04.720Z,16.94
2017-04-10T10:30:02.599Z,18.26
2017-04-10T10:31:00.439Z,17.11
2017-04-10T10:31:58.336Z,16.50
2017-04-10T10:32:56.219Z,17.36
2017-04-10T10:33:54.042Z,17.40
2017-04-10T10:34:51.912Z,16.94
2017-04-10T10:35:49.737Z,17.23
2017-04-10T10:36:47.600Z,17.00
2017-04-10T10:37:45.482Z,16.71
2017-04-10T10:38:43.345Z,16.19
2017-04-10T10:39:41.316Z,15.53
2017-04-10T10:40:39.203Z,15.30
2017-04-10T10:41:37.045Z,16.03
2017-04-10T10:42:34.891Z,14.99
2017-04-10T10:43:32.725Z,15.24
2017-04-10T10:44:30.692Z,16.19
2017-04-10T10:45:28.519Z,15.73
2017-04-10T10:46:26.454Z,16.54
2017-04-10T10:47:24.329Z,17.26
2017-04-10T10:48:22.273Z,16.01
2017-04-10T10:49:20.143Z,16.63
2017-04-10T10:50:17.999Z,15.37
2017-04-10T10:51:15.952Z,14.31
2017-04-10T10:52:13.826Z,14.59
2017-04-10T10:53:11.737Z,14.21
2017-04-10T10:54:09.627Z,13.63
2017-04-10T10:55:07.513Z,12.04
2017-04-10T10:56:05.364Z,13.61
2017-04-10T10:57:03.220Z,12.79
2017-04-10T10:58:01.154Z,11.67
2017-04-10T10:58:58.993Z,11.59
2017-04-10T10:59:56.908Z,11.27
2017-04-10T11:00:54.727Z,11.03
2017-04-10T11:01:52.760Z,10.29
2017-04-10T11:02:50.608Z,10.10
2017-04-10T11:03:48.471Z,10.17
2017-04-10T11:04:46.325Z,9.33
2017-04-10T11:05:44.215Z,9.41
2017-04-10T11:06:42.218Z,9.14
2017-04-10T11:07:40.136Z,9.23
2017-04-10T11:08:37.967Z,8.91
2017-04-10T11:09:35.801Z,11.21
2017-04-10T11:10:33.616Z,10.01
2017-04-10T11:11:31.573Z,10.34
2017-04-10T11:12:29.399Z,10.13
2017-04-10T11:13:27.339Z,10.20
2017-04-10T11:14:25.176Z,9.23
2017-04-10T11:15:23.130Z,9.59
2017-04-10T11:16:20.992Z,9.50
2017-04-10T11:17:18.860Z,10.10
2017-04-10T11:18:16.727Z,10.17
2017-04-10T11:19:14.580Z,11.41
2017-04-10T11:20:12.469Z,11.31
2017-04-10T11:21:10.302Z,11.03
2017-04-10T11:22:08.300Z,10.37
2017-04-10T11:23:06.211Z,10.06
2017-04-10T11:24:04.105Z,9.86
2017-04-10T11:25:01.959Z,10.10
2017-04-10T11:25:59.759Z,9.49
2017-04-10T11:26:57.639Z,10.50
2017-04-10T11:27:55.524Z,9.87
2017-04-10T11:28:53.379Z,10.36
2017-04-10T11:29:51.248Z,10.74
2017-04-10T11:30:49.109Z,11.01
2017-04-10T11:31:46.928Z,9.76
2017-04-10T11:32:44.772Z,10.01
2017-04-10T11:33:42.664Z,10.06
2017-04-10T11:34:40.496Z,9.37
2017-04-10T11:35:38.336Z,9.91
2017-04-10T11:36:36.187Z,9.74
2017-04-10T11:37:34.088Z,8.71
2017-04-10T11:38:32.483Z,9.59
2017-04-10T11:39:30.360Z,10.11
2017-04-10T11:40:28.216Z,11.80
2017-04-10T11:41:26.049Z,10.90
2017-04-10T11:42:23.888Z,11.44
2017-04-10T11:43:21.864Z,12.16
2017-04-10T11:44:19.733Z,11.90
2017-04-10T11:45:18.063Z,12.53
2017-04-10T11:46:15.944Z,11.56
2017-04-10T11:47:13.833Z,12.46
2017-04-10T11:48:11.696Z,12.74
2017-04-10T11:49:09.569Z,11.20
2017-04-10T11:50:07.445Z,11.76
2017-04-10T11:51:05.300Z,11.83
2017-04-10T11:52:03.201Z,11.83
2017-04-10T11:53:01.096Z,12.59
2017-04-10T11:53:58.973Z,11.51
2017-04-10T11:54:56.884Z,11.21
2017-04-10T11:55:54.797Z,11.30
2017-04-10T11:56:52.697Z,11.19
2017-04-10T11:57:50.561Z,10.57
2017-04-10T11:58:48.447Z,11.29
2017-04-10T11:59:46.287Z,11.67
2017-04-10T12:00:44.119Z,11.37
2017-04-10T12:01:42.018Z,10.71
2017-04-10T12:02:39.861Z,11.20
2017-04-10T12:03:37.732Z,11.16
2017-04-10T12:04:35.589Z,10.71
2017-04-10T12:05:33.489Z,10.71
2017-04-10T12:06:31.354Z,11.60
2017-04-10T12:07:29.191Z,11.06
2017-04-10T12:08:27.067Z,11.09
2017-04-10T12:09:24.915Z,11.03
2017-04-10T12:10:22.759Z,10.59
2017-04-10T12:11:20.720Z,12.70
2017-04-10T12:12:18.645Z,11.29
2017-04-10T12:13:16.532Z,11.80
2017-04-10T12:14:14.405Z,11.41
2017-04-10T12:15:12.223Z,11.09
2017-04-10T12:16:10.127Z,12.31
2017-04-10T12:17:07.992Z,13.23
2017-04-10T12:18:05.844Z,13.07
2017-04-10T12:19:03.680Z,13.40
2017-04-10T12:20:01.663Z,13.71
2017-04-10T12:20:59.538Z,13.89
2017-04-10T12:21:57.401Z,12.61
2017-04-10T12:22:55.237Z,11.97
2017-04-10T12:23:53.081Z,11.19
2017-04-10T12:24:50.935Z,10.29
2017-04-10T12:25:48.838Z,11.31
2017-04-10T12:26:46.719Z,10.01